sensor_id;sensor_type;location;lat;lon;timestamp;pressure;altitude;pressure_sealevel;temperature;humidity
81162;BME280;70638;-33.792;151.032;2024-03-02T00:01:17;100811.14;;;23.71;100.00
81162;BME280;70638;-33.792;151.032;2024-03-02T00:03:46;100819.84;;;23.57;100.00
81162;BME280;70638;-33.792;151.032;2024-03-02T00:06:20;100813.17;;;23.61;100.00
81162;BME280;70638;-33.792;151.032;2024-03-02T00:08:56;100819.38;;;23.80;100.00
81162;BME280;70638;-33.792;151.032;2024-03-02T00:11:21;100825.47;;;24.03;100.00
81162;BME280;70638;-33.792;151.032;2024-03-02T00:13:52;100821.38;;;24.08;100.00
81162;BME280;70638;-33.792;151.032;2024-03-02T00:16:25;100826.56;;;23.98;100.00
81162;BME280;70638;-33.792;151.032;2024-03-02T00:18:48;100821.19;;;23.94;100.00
81162;BME280;70638;-33.792;151.032;2024-03-02T00:21:27;100819.45;;;24.03;100.00
81162;BME280;70638;-33.792;151.032;2024-03-02T00:23:49;100825.71;;;24.13;100.00
81162;BME280;70638;-33.792;151.032;2024-03-02T00:26:21;100829.77;;;23.94;100.00
81162;BME280;70638;-33.792;151.032;2024-03-02T00:28:56;100831.58;;;23.88;100.00
81162;BME280;70638;-33.792;151.032;2024-03-02T00:31:32;100837.92;;;23.97;100.00
81162;BME280;70638;-33.792;151.032;2024-03-02T00:33:52;100852.19;;;24.06;100.00
81162;BME280;70638;-33.792;151.032;2024-03-02T00:36:28;100832.27;;;23.88;100.00
81162;BME280;70638;-33.792;151.032;2024-03-02T00:38:54;100845.17;;;23.72;100.00
81162;BME280;70638;-33.792;151.032;2024-03-02T00:41:36;100826.57;;;23.76;100.00
81162;BME280;70638;-33.792;151.032;2024-03-02T00:44:01;100814.95;;;23.75;100.00
81162;BME280;70638;-33.792;151.032;2024-03-02T00:46:28;100828.70;;;23.70;100.00
81162;BME280;70638;-33.792;151.032;2024-03-02T00:48:58;100821.86;;;23.88;100.00
81162;BME280;70638;-33.792;151.032;2024-03-02T00:51:27;100822.91;;;23.79;100.00
81162;BME280;70638;-33.792;151.032;2024-03-02T00:54:03;100832.32;;;23.66;100.00
81162;BME280;70638;-33.792;151.032;2024-03-02T00:56:27;100843.20;;;23.51;100.00
81162;BME280;70638;-33.792;151.032;2024-03-02T00:58:57;100849.77;;;23.53;100.00
81162;BME280;70638;-33.792;151.032;2024-03-02T01:01:27;100849.27;;;23.59;100.00
81162;BME280;70638;-33.792;151.032;2024-03-02T01:03:58;100845.75;;;23.52;100.00
81162;BME280;70638;-33.792;151.032;2024-03-02T01:06:30;100848.85;;;23.54;100.00
81162;BME280;70638;-33.792;151.032;2024-03-02T01:09:05;100839.53;;;23.58;100.00
81162;BME280;70638;-33.792;151.032;2024-03-02T01:11:31;100853.16;;;23.61;100.00
81162;BME280;70638;-33.792;151.032;2024-03-02T01:14:00;100850.12;;;23.56;100.00
81162;BME280;70638;-33.792;151.032;2024-03-02T01:16:31;100861.39;;;23.57;100.00
81162;BME280;70638;-33.792;151.032;2024-03-02T01:19:08;100866.03;;;23.51;100.00
81162;BME280;70638;-33.792;151.032;2024-03-02T01:21:33;100859.55;;;23.49;100.00
81162;BME280;70638;-33.792;151.032;2024-03-02T01:24:04;100874.74;;;23.52;100.00
81162;BME280;70638;-33.792;151.032;2024-03-02T01:26:33;100875.10;;;23.39;100.00
81162;BME280;70638;-33.792;151.032;2024-03-02T01:29:05;100886.75;;;23.34;100.00
81162;BME280;70638;-33.792;151.032;2024-03-02T01:31:37;100893.19;;;23.25;100.00
81162;BME280;70638;-33.792;151.032;2024-03-02T01:34:05;100899.78;;;23.23;100.00
81162;BME280;70638;-33.792;151.032;2024-03-02T01:36:36;100899.86;;;23.34;100.00
81162;BME280;70638;-33.792;151.032;2024-03-02T01:39:11;100897.09;;;23.34;100.00
81162;BME280;70638;-33.792;151.032;2024-03-02T01:41:40;100903.36;;;23.41;100.00
81162;BME280;70638;-33.792;151.032;2024-03-02T01:44:08;100899.70;;;23.40;100.00
81162;BME280;70638;-33.792;151.032;2024-03-02T01:46:39;100889.83;;;23.54;100.00
81162;BME280;70638;-33.792;151.032;2024-03-02T01:49:09;100894.09;;;23.61;100.00
81162;BME280;70638;-33.792;151.032;2024-03-02T01:51:41;100895.16;;;23.56;100.00
81162;BME280;70638;-33.792;151.032;2024-03-02T01:54:11;100893.67;;;23.61;100.00
81162;BME280;70638;-33.792;151.032;2024-03-02T01:56:46;100898.25;;;23.56;100.00
81162;BME280;70638;-33.792;151.032;2024-03-02T01:59:15;100908.75;;;23.42;100.00
81162;BME280;70638;-33.792;151.032;2024-03-02T02:01:49;100918.77;;;23.36;100.00
81162;BME280;70638;-33.792;151.032;2024-03-02T02:04:13;100919.29;;;23.25;100.00
81162;BME280;70638;-33.792;151.032;2024-03-02T02:06:47;100921.82;;;23.30;100.00
81162;BME280;70638;-33.792;151.032;2024-03-02T02:09:14;100919.22;;;23.28;100.00
81162;BME280;70638;-33.792;151.032;2024-03-02T02:11:45;100920.09;;;23.31;100.00
81162;BME280;70638;-33.792;151.032;2024-03-02T02:14:16;100916.83;;;23.27;100.00
81162;BME280;70638;-33.792;151.032;2024-03-02T02:16:47;100919.27;;;23.25;100.00
81162;BME280;70638;-33.792;151.032;2024-03-02T02:19:17;100918.91;;;23.19;100.00
81162;BME280;70638;-33.792;151.032;2024-03-02T02:21:48;100921.96;;;23.06;100.00
81162;BME280;70638;-33.792;151.032;2024-03-02T02:24:25;100918.83;;;22.93;100.00
81162;BME280;70638;-33.792;151.032;2024-03-02T02:26:50;100917.22;;;22.73;100.00
81162;BME280;70638;-33.792;151.032;2024-03-02T02:29:20;100913.86;;;22.57;100.00
81162;BME280;70638;-33.792;151.032;2024-03-02T02:31:51;100914.23;;;22.48;100.00
81162;BME280;70638;-33.792;151.032;2024-03-02T02:34:22;100906.73;;;22.43;100.00
81162;BME280;70638;-33.792;151.032;2024-03-02T02:36:52;100909.82;;;22.34;100.00
81162;BME280;70638;-33.792;151.032;2024-03-02T02:39:24;100899.38;;;22.22;100.00
81162;BME280;70638;-33.792;151.032;2024-03-02T02:42:03;100901.44;;;22.25;100.00
81162;BME280;70638;-33.792;151.032;2024-03-02T02:44:28;100898.43;;;22.15;100.00
81162;BME280;70638;-33.792;151.032;2024-03-02T02:46:58;100892.58;;;22.17;100.00
81162;BME280;70638;-33.792;151.032;2024-03-02T02:49:26;100901.47;;;22.05;100.00
81162;BME280;70638;-33.792;151.032;2024-03-02T02:52:02;100907.36;;;21.88;100.00
81162;BME280;70638;-33.792;151.032;2024-03-02T02:54:27;100916.07;;;21.85;100.00
81162;BME280;70638;-33.792;151.032;2024-03-02T02:56:58;100910.65;;;21.72;100.00
81162;BME280;70638;-33.792;151.032;2024-03-02T02:59:29;100916.25;;;21.69;100.00
81162;BME280;70638;-33.792;151.032;2024-03-02T03:02:00;100911.00;;;21.70;100.00
81162;BME280;70638;-33.792;151.032;2024-03-02T03:04:33;100907.38;;;21.59;100.00
81162;BME280;70638;-33.792;151.032;2024-03-02T03:07:00;100894.39;;;21.57;100.00
81162;BME280;70638;-33.792;151.032;2024-03-02T03:09:31;100893.12;;;21.57;100.00
81162;BME280;70638;-33.792;151.032;2024-03-02T03:12:02;100884.53;;;21.58;100.00
81162;BME280;70638;-33.792;151.032;2024-03-02T03:14:32;100876.78;;;21.47;100.00
81162;BME280;70638;-33.792;151.032;2024-03-02T03:17:03;100879.48;;;21.37;100.00
81162;BME280;70638;-33.792;151.032;2024-03-02T03:19:34;100886.27;;;21.42;100.00
81162;BME280;70638;-33.792;151.032;2024-03-02T03:22:06;100881.06;;;21.36;100.00
81162;BME280;70638;-33.792;151.032;2024-03-02T03:24:36;100874.45;;;21.36;100.00
81162;BME280;70638;-33.792;151.032;2024-03-02T03:27:07;100871.91;;;21.34;100.00
81162;BME280;70638;-33.792;151.032;2024-03-02T03:29:41;100872.63;;;21.37;100.00
81162;BME280;70638;-33.792;151.032;2024-03-02T03:32:09;100859.58;;;21.26;100.00
81162;BME280;70638;-33.792;151.032;2024-03-02T03:34:41;100849.36;;;21.22;100.00
81162;BME280;70638;-33.792;151.032;2024-03-02T03:37:08;100841.45;;;21.36;100.00
81162;BME280;70638;-33.792;151.032;2024-03-02T03:39:40;100833.83;;;21.35;100.00
81162;BME280;70638;-33.792;151.032;2024-03-02T03:42:09;100824.40;;;21.57;100.00
81162;BME280;70638;-33.792;151.032;2024-03-02T03:44:44;100814.98;;;21.62;100.00
81162;BME280;70638;-33.792;151.032;2024-03-02T03:47:14;100806.67;;;21.62;100.00
81162;BME280;70638;-33.792;151.032;2024-03-02T03:49:49;100799.58;;;21.93;100.00
81162;BME280;70638;-33.792;151.032;2024-03-02T03:52:12;100780.98;;;21.80;100.00
81162;BME280;70638;-33.792;151.032;2024-03-02T03:54:46;100783.81;;;21.88;100.00
81162;BME280;70638;-33.792;151.032;2024-03-02T03:57:13;100789.42;;;21.73;100.00
81162;BME280;70638;-33.792;151.032;2024-03-02T03:59:44;100784.70;;;21.79;100.00
81162;BME280;70638;-33.792;151.032;2024-03-02T04:02:15;100790.70;;;21.90;100.00
81162;BME280;70638;-33.792;151.032;2024-03-02T04:04:49;100791.74;;;21.95;100.00
81162;BME280;70638;-33.792;151.032;2024-03-02T04:07:18;100791.46;;;22.28;100.00
81162;BME280;70638;-33.792;151.032;2024-03-02T04:09:46;100784.64;;;22.31;100.00
81162;BME280;70638;-33.792;151.032;2024-03-02T04:12:21;100780.49;;;22.29;100.00
81162;BME280;70638;-33.792;151.032;2024-03-02T04:14:48;100774.50;;;22.15;100.00
81162;BME280;70638;-33.792;151.032;2024-03-02T04:17:19;100776.55;;;21.83;100.00
81162;BME280;70638;-33.792;151.032;2024-03-02T04:19:55;100783.73;;;21.75;100.00
81162;BME280;70638;-33.792;151.032;2024-03-02T04:22:20;100789.84;;;21.74;100.00
81162;BME280;70638;-33.792;151.032;2024-03-02T04:24:51;100787.91;;;21.68;100.00
81162;BME280;70638;-33.792;151.032;2024-03-02T04:27:22;100784.77;;;21.57;100.00
81162;BME280;70638;-33.792;151.032;2024-03-02T04:29:52;100789.41;;;21.71;100.00
81162;BME280;70638;-33.792;151.032;2024-03-02T04:32:31;100792.30;;;21.63;100.00
81162;BME280;70638;-33.792;151.032;2024-03-02T04:34:54;100786.95;;;21.68;100.00
81162;BME280;70638;-33.792;151.032;2024-03-02T04:37:24;100787.67;;;21.80;100.00
81162;BME280;70638;-33.792;151.032;2024-03-02T04:39:55;100775.16;;;21.77;100.00
81162;BME280;70638;-33.792;151.032;2024-03-02T04:42:26;100771.86;;;21.71;100.00
81162;BME280;70638;-33.792;151.032;2024-03-02T04:44:56;100778.17;;;21.63;100.00
81162;BME280;70638;-33.792;151.032;2024-03-02T04:47:27;100783.97;;;21.51;100.00
81162;BME280;70638;-33.792;151.032;2024-03-02T04:49:58;100779.20;;;21.45;100.00
81162;BME280;70638;-33.792;151.032;2024-03-02T04:52:29;100780.06;;;21.44;100.00
81162;BME280;70638;-33.792;151.032;2024-03-02T04:55:34;100785.65;;;21.48;100.00
81162;BME280;70638;-33.792;151.032;2024-03-02T04:57:30;100774.27;;;21.57;100.00
81162;BME280;70638;-33.792;151.032;2024-03-02T05:00:01;100771.88;;;21.74;100.00
81162;BME280;70638;-33.792;151.032;2024-03-02T05:02:32;100774.61;;;21.82;100.00
81162;BME280;70638;-33.792;151.032;2024-03-02T05:05:03;100786.66;;;21.75;100.00
81162;BME280;70638;-33.792;151.032;2024-03-02T05:07:34;100786.02;;;21.89;100.00
81162;BME280;70638;-33.792;151.032;2024-03-02T05:10:07;100779.03;;;21.84;100.00
81162;BME280;70638;-33.792;151.032;2024-03-02T05:12:57;100777.30;;;21.85;100.00
81162;BME280;70638;-33.792;151.032;2024-03-02T05:15:09;100786.81;;;22.01;100.00
81162;BME280;70638;-33.792;151.032;2024-03-02T05:17:34;100791.80;;;21.92;100.00
81162;BME280;70638;-33.792;151.032;2024-03-02T05:20:07;100794.87;;;21.88;100.00
81162;BME280;70638;-33.792;151.032;2024-03-02T05:22:37;100801.91;;;21.78;100.00
81162;BME280;70638;-33.792;151.032;2024-03-02T05:25:07;100809.98;;;21.73;100.00
81162;BME280;70638;-33.792;151.032;2024-03-02T05:27:37;100808.84;;;21.71;100.00
81162;BME280;70638;-33.792;151.032;2024-03-02T05:30:10;100811.25;;;21.78;100.00
81162;BME280;70638;-33.792;151.032;2024-03-02T05:32:41;100820.73;;;21.71;100.00
81162;BME280;70638;-33.792;151.032;2024-03-02T05:35:13;100816.88;;;21.66;100.00
81162;BME280;70638;-33.792;151.032;2024-03-02T05:37:39;100827.57;;;21.71;100.00
81162;BME280;70638;-33.792;151.032;2024-03-02T05:40:10;100835.66;;;21.68;100.00
81162;BME280;70638;-33.792;151.032;2024-03-02T05:42:40;100841.85;;;21.63;100.00
81162;BME280;70638;-33.792;151.032;2024-03-02T05:45:10;100849.21;;;21.58;100.00
81162;BME280;70638;-33.792;151.032;2024-03-02T05:47:41;100853.20;;;21.60;100.00
81162;BME280;70638;-33.792;151.032;2024-03-02T05:50:12;100862.33;;;21.56;100.00
81162;BME280;70638;-33.792;151.032;2024-03-02T05:52:44;100873.53;;;21.57;100.00
81162;BME280;70638;-33.792;151.032;2024-03-02T05:55:20;100875.01;;;21.60;100.00
81162;BME280;70638;-33.792;151.032;2024-03-02T05:57:51;100875.34;;;21.66;100.00
81162;BME280;70638;-33.792;151.032;2024-03-02T06:00:14;100884.44;;;21.64;100.00
81162;BME280;70638;-33.792;151.032;2024-03-02T06:02:44;100893.78;;;21.58;100.00
81162;BME280;70638;-33.792;151.032;2024-03-02T06:05:14;100892.70;;;21.56;100.00
81162;BME280;70638;-33.792;151.032;2024-03-02T06:07:44;100891.08;;;21.61;100.00
81162;BME280;70638;-33.792;151.032;2024-03-02T06:10:16;100894.52;;;21.71;100.00
81162;BME280;70638;-33.792;151.032;2024-03-02T06:12:46;100898.58;;;21.72;100.00
81162;BME280;70638;-33.792;151.032;2024-03-02T06:15:16;100906.30;;;21.71;100.00
81162;BME280;70638;-33.792;151.032;2024-03-02T06:17:47;100902.80;;;21.70;100.00
81162;BME280;70638;-33.792;151.032;2024-03-02T06:20:21;100906.91;;;21.65;100.00
81162;BME280;70638;-33.792;151.032;2024-03-02T06:22:49;100905.16;;;21.62;100.00
81162;BME280;70638;-33.792;151.032;2024-03-02T06:25:19;100904.36;;;21.65;100.00
81162;BME280;70638;-33.792;151.032;2024-03-02T06:27:53;100906.70;;;21.68;100.00
81162;BME280;70638;-33.792;151.032;2024-03-02T06:30:21;100905.52;;;21.67;100.00
81162;BME280;70638;-33.792;151.032;2024-03-02T06:32:52;100905.52;;;21.67;100.00
81162;BME280;70638;-33.792;151.032;2024-03-02T06:35:23;100906.16;;;21.71;100.00
81162;BME280;70638;-33.792;151.032;2024-03-02T06:37:56;100915.47;;;21.71;100.00
81162;BME280;70638;-33.792;151.032;2024-03-02T06:40:24;100912.89;;;21.70;100.00
81162;BME280;70638;-33.792;151.032;2024-03-02T06:42:54;100915.21;;;21.76;100.00
81162;BME280;70638;-33.792;151.032;2024-03-02T06:45:28;100916.27;;;21.73;100.00
81162;BME280;70638;-33.792;151.032;2024-03-02T06:47:56;100925.19;;;21.72;100.00
81162;BME280;70638;-33.792;151.032;2024-03-02T06:50:27;100926.24;;;21.71;100.00
81162;BME280;70638;-33.792;151.032;2024-03-02T06:52:59;100922.71;;;21.72;100.00
81162;BME280;70638;-33.792;151.032;2024-03-02T06:55:28;100926.23;;;21.70;100.00
81162;BME280;70638;-33.792;151.032;2024-03-02T06:57:59;100926.64;;;21.68;100.00
81162;BME280;70638;-33.792;151.032;2024-03-02T07:00:31;100932.35;;;21.69;100.00
81162;BME280;70638;-33.792;151.032;2024-03-02T07:03:01;100925.53;;;21.67;100.00
81162;BME280;70638;-33.792;151.032;2024-03-02T07:05:31;100925.22;;;21.66;100.00
81162;BME280;70638;-33.792;151.032;2024-03-02T07:08:02;100926.20;;;21.60;100.00
81162;BME280;70638;-33.792;151.032;2024-03-02T07:10:32;100926.48;;;21.57;100.00
81162;BME280;70638;-33.792;151.032;2024-03-02T07:13:06;100923.16;;;21.57;100.00
81162;BME280;70638;-33.792;151.032;2024-03-02T07:15:56;100930.61;;;21.56;100.00
81162;BME280;70638;-33.792;151.032;2024-03-02T07:18:05;100943.52;;;21.51;100.00
81162;BME280;70638;-33.792;151.032;2024-03-02T07:20:36;100935.46;;;21.47;100.00
81162;BME280;70638;-33.792;151.032;2024-03-02T07:23:07;100943.39;;;21.38;100.00
81162;BME280;70638;-33.792;151.032;2024-03-02T07:25:37;100950.50;;;21.30;100.00
81162;BME280;70638;-33.792;151.032;2024-03-02T07:28:07;100955.41;;;21.23;100.00
81162;BME280;70638;-33.792;151.032;2024-03-02T07:30:43;100964.73;;;21.18;100.00
81162;BME280;70638;-33.792;151.032;2024-03-02T07:33:09;100971.70;;;21.14;100.00
81162;BME280;70638;-33.792;151.032;2024-03-02T07:35:41;100972.70;;;21.10;100.00
81162;BME280;70638;-33.792;151.032;2024-03-02T07:38:14;100968.93;;;21.10;100.00
81162;BME280;70638;-33.792;151.032;2024-03-02T07:40:44;100960.02;;;21.11;100.00
81162;BME280;70638;-33.792;151.032;2024-03-02T07:43:22;100954.53;;;21.08;100.00
81162;BME280;70638;-33.792;151.032;2024-03-02T07:45:42;100950.03;;;21.11;100.00
81162;BME280;70638;-33.792;151.032;2024-03-02T07:48:18;100954.50;;;21.10;100.00
81162;BME280;70638;-33.792;151.032;2024-03-02T07:50:43;100960.11;;;21.11;100.00
81162;BME280;70638;-33.792;151.032;2024-03-02T07:53:15;100972.52;;;21.12;100.00
81162;BME280;70638;-33.792;151.032;2024-03-02T07:55:45;100970.23;;;21.10;100.00
81162;BME280;70638;-33.792;151.032;2024-03-02T07:58:15;100965.50;;;21.11;100.00
81162;BME280;70638;-33.792;151.032;2024-03-02T08:00:45;100962.89;;;21.13;100.00
81162;BME280;70638;-33.792;151.032;2024-03-02T08:03:15;100962.88;;;21.15;100.00
81162;BME280;70638;-33.792;151.032;2024-03-02T08:05:46;100969.86;;;21.22;100.00
81162;BME280;70638;-33.792;151.032;2024-03-02T08:08:20;100969.33;;;21.24;100.00
81162;BME280;70638;-33.792;151.032;2024-03-02T08:10:52;100974.92;;;21.22;100.00
81162;BME280;70638;-33.792;151.032;2024-03-02T08:13:18;100980.22;;;21.22;100.00
81162;BME280;70638;-33.792;151.032;2024-03-02T08:15:49;100974.92;;;21.22;100.00
81162;BME280;70638;-33.792;151.032;2024-03-02T08:18:26;100970.56;;;21.21;100.00
81162;BME280;70638;-33.792;151.032;2024-03-02T08:20:51;100968.56;;;21.24;100.00
81162;BME280;70638;-33.792;151.032;2024-03-02T08:23:22;100974.34;;;21.21;100.00
81162;BME280;70638;-33.792;151.032;2024-03-02T08:25:52;100973.32;;;21.19;100.00
81162;BME280;70638;-33.792;151.032;2024-03-02T08:28:23;100977.98;;;21.22;100.00
81162;BME280;70638;-33.792;151.032;2024-03-02T08:30:54;100983.93;;;21.20;100.00
81162;BME280;70638;-33.792;151.032;2024-03-02T08:33:24;100986.41;;;21.26;100.00
81162;BME280;70638;-33.792;151.032;2024-03-02T08:35:55;100990.50;;;21.21;100.00
81162;BME280;70638;-33.792;151.032;2024-03-02T08:38:34;100990.31;;;21.22;100.00
81162;BME280;70638;-33.792;151.032;2024-03-02T08:40:56;100991.45;;;21.19;100.00
81162;BME280;70638;-33.792;151.032;2024-03-02T08:43:26;100997.92;;;21.16;100.00
81162;BME280;70638;-33.792;151.032;2024-03-02T08:45:57;101000.59;;;21.15;100.00
81162;BME280;70638;-33.792;151.032;2024-03-02T08:48:27;101005.16;;;21.13;100.00
81162;BME280;70638;-33.792;151.032;2024-03-02T08:50:58;101006.66;;;21.14;100.00
81162;BME280;70638;-33.792;151.032;2024-03-02T08:53:29;101005.47;;;21.15;100.00
81162;BME280;70638;-33.792;151.032;2024-03-02T08:56:00;101007.30;;;21.11;100.00
81162;BME280;70638;-33.792;151.032;2024-03-02T08:58:30;101010.14;;;21.12;100.00
81162;BME280;70638;-33.792;151.032;2024-03-02T09:01:07;101020.27;;;21.15;100.00
81162;BME280;70638;-33.792;151.032;2024-03-02T09:03:40;101026.50;;;21.15;100.00
81162;BME280;70638;-33.792;151.032;2024-03-02T09:06:01;101034.44;;;21.17;100.00
81162;BME280;70638;-33.792;151.032;2024-03-02T09:08:38;101043.70;;;21.08;100.00
81162;BME280;70638;-33.792;151.032;2024-03-02T09:11:04;101049.27;;;20.59;100.00
81162;BME280;70638;-33.792;151.032;2024-03-02T09:13:34;101061.84;;;20.37;100.00
81162;BME280;70638;-33.792;151.032;2024-03-02T09:16:05;101084.77;;;20.24;100.00
81162;BME280;70638;-33.792;151.032;2024-03-02T09:18:38;101095.73;;;20.18;100.00
81162;BME280;70638;-33.792;151.032;2024-03-02T09:21:05;101093.74;;;20.03;100.00
81162;BME280;70638;-33.792;151.032;2024-03-02T09:23:36;101098.94;;;19.94;100.00
81162;BME280;70638;-33.792;151.032;2024-03-02T09:26:07;101094.69;;;19.81;100.00
81162;BME280;70638;-33.792;151.032;2024-03-02T09:28:37;101101.45;;;19.78;100.00
81162;BME280;70638;-33.792;151.032;2024-03-02T09:31:08;101107.59;;;19.78;100.00
81162;BME280;70638;-33.792;151.032;2024-03-02T09:33:38;101109.58;;;19.72;100.00
81162;BME280;70638;-33.792;151.032;2024-03-02T09:36:21;101108.59;;;19.70;100.00
81162;BME280;70638;-33.792;151.032;2024-03-02T09:38:39;101109.51;;;19.64;100.00
81162;BME280;70638;-33.792;151.032;2024-03-02T09:41:10;101110.28;;;19.64;100.00
81162;BME280;70638;-33.792;151.032;2024-03-02T09:43:40;101113.45;;;19.63;100.00
81162;BME280;70638;-33.792;151.032;2024-03-02T09:46:10;101109.54;;;19.61;100.00
81162;BME280;70638;-33.792;151.032;2024-03-02T09:48:40;101112.94;;;19.62;100.00
81162;BME280;70638;-33.792;151.032;2024-03-02T09:51:11;101113.88;;;19.65;100.00
81162;BME280;70638;-33.792;151.032;2024-03-02T09:53:44;101117.98;;;19.68;100.00
81162;BME280;70638;-33.792;151.032;2024-03-02T09:56:12;101114.91;;;19.70;100.00
81162;BME280;70638;-33.792;151.032;2024-03-02T09:58:43;101113.19;;;19.71;100.00
81162;BME280;70638;-33.792;151.032;2024-03-02T10:01:16;101123.27;;;19.70;100.00
81162;BME280;70638;-33.792;151.032;2024-03-02T10:03:45;101122.14;;;19.73;100.00
81162;BME280;70638;-33.792;151.032;2024-03-02T10:06:21;101130.15;;;19.74;100.00
81162;BME280;70638;-33.792;151.032;2024-03-02T10:08:45;101129.64;;;19.74;100.00
81162;BME280;70638;-33.792;151.032;2024-03-02T10:11:35;101125.26;;;19.78;100.00
81162;BME280;70638;-33.792;151.032;2024-03-02T10:13:47;101128.41;;;19.77;100.00
81162;BME280;70638;-33.792;151.032;2024-03-02T10:16:17;101141.25;;;19.73;100.00
81162;BME280;70638;-33.792;151.032;2024-03-02T10:18:47;101143.95;;;19.78;100.00
81162;BME280;70638;-33.792;151.032;2024-03-02T10:21:20;101148.45;;;19.79;100.00
81162;BME280;70638;-33.792;151.032;2024-03-02T10:23:52;101147.74;;;19.82;100.00
81162;BME280;70638;-33.792;151.032;2024-03-02T10:26:19;101154.58;;;19.82;100.00
81162;BME280;70638;-33.792;151.032;2024-03-02T10:28:58;101150.24;;;19.81;100.00
81162;BME280;70638;-33.792;151.032;2024-03-02T10:31:29;101149.81;;;19.92;100.00
81162;BME280;70638;-33.792;151.032;2024-03-02T10:33:52;101148.01;;;19.97;100.00
81162;BME280;70638;-33.792;151.032;2024-03-02T10:36:22;101154.15;;;19.94;100.00
81162;BME280;70638;-33.792;151.032;2024-03-02T10:38:52;101154.55;;;19.86;100.00
81162;BME280;70638;-33.792;151.032;2024-03-02T10:41:27;101155.28;;;19.79;100.00
81162;BME280;70638;-33.792;151.032;2024-03-02T10:44:00;101154.65;;;19.73;100.00
81162;BME280;70638;-33.792;151.032;2024-03-02T10:46:24;101153.36;;;19.72;100.00
81162;BME280;70638;-33.792;151.032;2024-03-02T10:48:54;101151.73;;;19.72;100.00
81162;BME280;70638;-33.792;151.032;2024-03-02T10:51:25;101155.50;;;19.71;100.00
81162;BME280;70638;-33.792;151.032;2024-03-02T10:53:56;101156.61;;;19.71;100.00
81162;BME280;70638;-33.792;151.032;2024-03-02T10:56:33;101163.88;;;19.70;100.00
81162;BME280;70638;-33.792;151.032;2024-03-02T10:59:02;101159.50;;;19.74;100.00
81162;BME280;70638;-33.792;151.032;2024-03-02T11:01:27;101160.53;;;19.71;100.00
81162;BME280;70638;-33.792;151.032;2024-03-02T11:03:57;101157.31;;;19.70;100.00
81162;BME280;70638;-33.792;151.032;2024-03-02T11:06:32;101159.17;;;19.71;100.00
81162;BME280;70638;-33.792;151.032;2024-03-02T11:09:06;101161.57;;;19.70;100.00
81162;BME280;70638;-33.792;151.032;2024-03-02T11:11:30;101162.78;;;19.67;100.00
81162;BME280;70638;-33.792;151.032;2024-03-02T11:14:02;101158.05;;;19.70;100.00
81162;BME280;70638;-33.792;151.032;2024-03-02T11:16:35;101159.36;;;19.68;100.00
81162;BME280;70638;-33.792;151.032;2024-03-02T11:19:01;101157.72;;;19.66;100.00
81162;BME280;70638;-33.792;151.032;2024-03-02T11:21:36;101156.70;;;19.63;100.00
81162;BME280;70638;-33.792;151.032;2024-03-02T11:29:05;101151.66;;;19.86;100.00
81162;BME280;70638;-33.792;151.032;2024-03-02T11:31:58;101153.00;;;19.99;100.00
81162;BME280;70638;-33.792;151.032;2024-03-02T11:34:18;101147.16;;;19.95;100.00
81162;BME280;70638;-33.792;151.032;2024-03-02T11:36:35;101151.40;;;19.96;100.00
81162;BME280;70638;-33.792;151.032;2024-03-02T11:39:04;101148.05;;;19.88;100.00
81162;BME280;70638;-33.792;151.032;2024-03-02T11:41:35;101151.53;;;19.81;100.00
81162;BME280;70638;-33.792;151.032;2024-03-02T11:44:37;101152.36;;;19.82;100.00
81162;BME280;70638;-33.792;151.032;2024-03-02T11:46:42;101150.12;;;19.97;100.00
81162;BME280;70638;-33.792;151.032;2024-03-02T11:49:07;101140.50;;;19.84;100.00
81162;BME280;70638;-33.792;151.032;2024-03-02T11:51:39;101145.12;;;19.81;100.00
81162;BME280;70638;-33.792;151.032;2024-03-02T11:54:12;101144.30;;;19.76;100.00
81162;BME280;70638;-33.792;151.032;2024-03-02T11:56:41;101147.88;;;19.72;100.00
81162;BME280;70638;-33.792;151.032;2024-03-02T11:59:09;101146.29;;;19.67;100.00
81162;BME280;70638;-33.792;151.032;2024-03-02T12:01:39;101148.33;;;19.64;100.00
81162;BME280;70638;-33.792;151.032;2024-03-02T12:04:11;101142.81;;;19.68;100.00
81162;BME280;70638;-33.792;151.032;2024-03-02T12:06:41;101144.16;;;19.69;100.00
81162;BME280;70638;-33.792;151.032;2024-03-02T12:09:14;101147.16;;;19.70;100.00
81162;BME280;70638;-33.792;151.032;2024-03-02T12:11:44;101144.89;;;19.76;100.00
81162;BME280;70638;-33.792;151.032;2024-03-02T12:14:12;101144.31;;;19.73;100.00
81162;BME280;70638;-33.792;151.032;2024-03-02T12:16:51;101148.97;;;19.79;100.00
81162;BME280;70638;-33.792;151.032;2024-03-02T12:19:14;101141.27;;;19.83;100.00
81162;BME280;70638;-33.792;151.032;2024-03-02T12:21:51;101148.28;;;19.94;100.00
81162;BME280;70638;-33.792;151.032;2024-03-02T12:24:15;101144.85;;;19.95;100.00
81162;BME280;70638;-33.792;151.032;2024-03-02T12:26:46;101145.59;;;19.96;100.00
81162;BME280;70638;-33.792;151.032;2024-03-02T12:29:18;101147.38;;;19.97;100.00
81162;BME280;70638;-33.792;151.032;2024-03-02T12:31:50;101146.30;;;19.95;100.00